Columbus, Ohio
Traffic Map
Current Weather Conditions
Columbus, Ohio
Overcast
Overcast
28°
Feels Like: 20°
Wind Chill: 20° Ceiling: 8000
Heat Index: 28° Visibility: 10mi
Dew Point: 15° Wind: 8mph
Humidity: 58% Direction: 200° (SSW)
Pressure: 30.31in Gusts: 0mph
Raw Report DataKCMH 281751Z 20007KT 10SM SCT029 OVC080 M02/M09 A3031 RMK AO2 SLP273 T10221094 11017 21061 58025
Traffic Incident Summary
Active as of:
Severity:
Category:
InformationThere was an issue retrieving the traffic information for this location. Please try a different location or try again shortly.
Advertisements
Track Severe Weather on mobile